createdAt,value
2023-05-07T00:00:40.669Z,98.41
2023-05-07T00:01:40.648Z,98.26
2023-05-07T00:02:40.714Z,98.10
2023-05-07T00:03:40.793Z,98.10
2023-05-07T00:04:40.624Z,98.56
2023-05-07T00:05:40.611Z,98.56
2023-05-07T00:06:40.582Z,98.81
2023-05-07T00:07:40.567Z,98.50
2023-05-07T00:08:40.558Z,98.36
2023-05-07T00:09:40.540Z,98.61
2023-05-07T00:10:40.532Z,98.61
2023-05-07T00:11:40.815Z,98.30
2023-05-07T00:12:40.557Z,98.41
2023-05-07T00:13:40.489Z,99.02
2023-05-07T00:14:40.491Z,99.07
2023-05-07T00:15:40.566Z,98.81
2023-05-07T00:16:40.542Z,98.81
2023-05-07T00:17:40.481Z,98.50
2023-05-07T00:18:40.425Z,99.68
2023-05-07T00:19:40.414Z,99.99
2023-05-07T00:20:40.398Z,99.42
2023-05-07T00:21:40.401Z,98.91
2023-05-07T00:22:40.372Z,99.11
2023-05-07T00:23:40.353Z,99.99
2023-05-07T00:24:40.341Z,99.52
2023-05-07T00:25:40.336Z,99.11
2023-05-07T00:26:40.319Z,98.81
2023-05-07T00:27:40.312Z,98.50
2023-05-07T00:28:40.282Z,98.50
2023-05-07T00:29:40.272Z,98.71
2023-05-07T00:30:40.265Z,98.81
2023-05-07T00:31:40.390Z,98.61
2023-05-07T00:32:40.263Z,98.30
2023-05-07T00:33:40.229Z,98.61
2023-05-07T00:34:40.209Z,99.02
2023-05-07T00:35:40.198Z,99.22
2023-05-07T00:36:40.186Z,99.47
2023-05-07T00:37:40.173Z,99.27
2023-05-07T00:38:40.158Z,99.27
2023-05-07T00:39:40.150Z,98.86
2023-05-07T00:40:40.139Z,99.06
2023-05-07T00:41:40.122Z,99.27
2023-05-07T00:42:40.124Z,99.27
2023-05-07T00:43:40.100Z,99.27
2023-05-07T00:44:40.081Z,99.16
2023-05-07T00:45:40.103Z,99.27
2023-05-07T00:46:40.053Z,99.27
2023-05-07T00:47:40.184Z,99.27
2023-05-07T00:48:40.029Z,98.86
2023-05-07T00:49:40.017Z,98.45
2023-05-07T00:50:40.003Z,98.66
2023-05-07T00:51:39.990Z,99.41
2023-05-07T00:52:39.978Z,99.88
2023-05-07T00:53:39.963Z,99.88
2023-05-07T00:54:39.949Z,99.88
2023-05-07T00:55:39.948Z,99.99
2023-05-07T00:56:39.926Z,99.99
2023-05-07T00:57:39.914Z,99.99
2023-05-07T00:58:39.896Z,99.99
2023-05-07T00:59:39.891Z,99.92
2023-05-07T01:00:39.865Z,99.72
2023-05-07T01:01:39.891Z,99.92
2023-05-07T01:02:39.876Z,99.99
2023-05-07T01:03:40.029Z,99.99
2023-05-07T01:04:39.933Z,99.99
2023-05-07T01:05:39.805Z,99.99
2023-05-07T01:06:39.797Z,99.99
2023-05-07T01:07:39.784Z,99.99
2023-05-07T01:08:39.763Z,99.99
2023-05-07T01:09:39.765Z,99.99
2023-05-07T01:10:39.740Z,99.99
2023-05-07T01:11:39.924Z,99.99
2023-05-07T01:12:39.760Z,99.99
2023-05-07T01:13:39.716Z,99.99
2023-05-07T01:14:39.685Z,99.99
2023-05-07T01:15:39.677Z,99.99
2023-05-07T01:16:39.674Z,99.99
2023-05-07T01:17:39.853Z,99.99
2023-05-07T01:18:39.636Z,99.99
2023-05-07T01:19:39.653Z,99.99
2023-05-07T01:20:39.610Z,99.99
2023-05-07T01:21:39.594Z,99.99
2023-05-07T01:22:39.621Z,99.99
2023-05-07T01:23:39.572Z,99.99
2023-05-07T01:24:39.573Z,99.99
2023-05-07T01:25:39.796Z,99.99
2023-05-07T01:26:39.532Z,99.99
2023-05-07T01:27:39.514Z,99.99
2023-05-07T01:28:40.469Z,99.99
2023-05-07T01:29:39.641Z,99.99
2023-05-07T01:30:39.477Z,99.99
2023-05-07T01:31:39.473Z,99.99
2023-05-07T01:32:39.510Z,99.99
2023-05-07T01:33:39.447Z,99.99
2023-05-07T01:34:39.674Z,99.99
2023-05-07T01:35:39.448Z,99.99
2023-05-07T01:36:39.393Z,99.99
2023-05-07T01:37:39.690Z,99.99
2023-05-07T01:38:39.373Z,99.99
2023-05-07T01:39:39.358Z,99.99
2023-05-07T01:40:39.742Z,99.99
2023-05-07T01:41:39.334Z,99.99
2023-05-07T01:42:39.315Z,99.99
2023-05-07T01:43:39.601Z,99.99
2023-05-07T01:44:39.288Z,99.99
2023-05-07T01:45:39.303Z,99.99
2023-05-07T01:46:39.344Z,99.99
2023-05-07T01:47:39.290Z,99.99
2023-05-07T01:48:39.281Z,99.99
2023-05-07T01:49:39.251Z,99.99
2023-05-07T01:50:39.225Z,99.99
2023-05-07T01:51:39.220Z,99.99
2023-05-07T01:52:39.193Z,99.99
2023-05-07T01:53:39.171Z,99.99
2023-05-07T01:54:39.198Z,99.99
2023-05-07T01:55:39.161Z,99.99
2023-05-07T01:56:39.159Z,99.99
2023-05-07T01:57:39.177Z,99.99
2023-05-07T01:58:39.173Z,99.99
2023-05-07T01:59:39.097Z,99.99
2023-05-07T02:00:39.085Z,99.99
2023-05-07T02:01:39.223Z,99.99
2023-05-07T02:02:39.207Z,99.99
2023-05-07T02:03:39.120Z,99.99
2023-05-07T02:04:39.373Z,99.99
2023-05-07T02:05:39.010Z,99.99
2023-05-07T02:06:39.005Z,99.99
2023-05-07T02:07:39.079Z,99.99
2023-05-07T02:08:38.974Z,99.99
2023-05-07T02:09:38.951Z,99.99
2023-05-07T02:10:38.936Z,99.99
2023-05-07T02:11:38.927Z,99.99
2023-05-07T02:12:38.949Z,99.99
2023-05-07T02:13:38.909Z,99.99
2023-05-07T02:14:38.894Z,99.99
2023-05-07T02:15:38.876Z,99.99
2023-05-07T02:16:38.898Z,99.99
2023-05-07T02:17:38.873Z,99.99
2023-05-07T02:18:38.836Z,99.99
2023-05-07T02:19:38.825Z,99.99
2023-05-07T02:20:38.812Z,99.99
2023-05-07T02:21:38.828Z,99.99
2023-05-07T02:22:38.783Z,99.99
2023-05-07T02:23:38.868Z,99.99
2023-05-07T02:24:38.762Z,99.99
2023-05-07T02:25:38.747Z,99.99
2023-05-07T02:26:38.751Z,99.99
2023-05-07T02:27:38.718Z,99.99
2023-05-07T02:28:38.707Z,99.99
2023-05-07T02:29:38.696Z,99.99
2023-05-07T02:30:38.671Z,99.99
2023-05-07T02:31:38.727Z,99.99
2023-05-07T02:32:38.717Z,99.99
2023-05-07T02:33:38.645Z,99.99
2023-05-07T02:34:38.627Z,99.99
2023-05-07T02:35:38.611Z,99.99
2023-05-07T02:36:38.594Z,99.99
2023-05-07T02:37:38.580Z,99.99
2023-05-07T02:38:38.571Z,99.99
2023-05-07T02:39:38.716Z,99.99
2023-05-07T02:40:38.542Z,99.99
2023-05-07T02:41:38.528Z,99.99
2023-05-07T02:42:38.527Z,99.99
2023-05-07T02:43:38.543Z,99.99
2023-05-07T02:44:38.487Z,99.99
2023-05-07T02:45:38.614Z,99.99
2023-05-07T02:46:38.482Z,99.99
2023-05-07T02:47:38.547Z,99.99
2023-05-07T02:48:38.440Z,99.99
2023-05-07T02:49:38.428Z,99.99
2023-05-07T02:50:38.411Z,99.99
2023-05-07T02:51:38.402Z,99.99
2023-05-07T02:52:38.389Z,99.99
2023-05-07T02:53:38.371Z,99.99
2023-05-07T02:54:38.355Z,99.99
2023-05-07T02:55:38.432Z,99.99
2023-05-07T02:56:38.337Z,99.99
2023-05-07T02:57:38.316Z,99.99
2023-05-07T02:58:38.294Z,99.99
2023-05-07T02:59:38.290Z,99.99
2023-05-07T03:00:38.264Z,99.99
2023-05-07T03:01:38.307Z,99.99
2023-05-07T03:02:38.266Z,99.99
2023-05-07T03:03:38.297Z,99.99
2023-05-07T03:04:38.268Z,99.99
2023-05-07T03:05:38.214Z,99.99
2023-05-07T03:06:38.195Z,99.99
2023-05-07T03:07:38.191Z,99.99
2023-05-07T03:08:38.170Z,99.99
2023-05-07T03:09:38.152Z,99.99
2023-05-07T03:10:38.135Z,99.99
2023-05-07T03:11:38.147Z,99.99
2023-05-07T03:12:38.132Z,99.99
2023-05-07T03:13:38.103Z,99.99
2023-05-07T03:14:38.095Z,99.99
2023-05-07T03:15:38.121Z,99.99
2023-05-07T03:16:38.063Z,99.99
2023-05-07T03:17:38.142Z,99.99
2023-05-07T03:18:38.068Z,99.99
2023-05-07T03:19:38.016Z,99.99
2023-05-07T03:20:38.036Z,99.99
2023-05-07T03:21:37.999Z,99.99
2023-05-07T03:22:37.977Z,99.99
2023-05-07T03:23:37.971Z,99.99
2023-05-07T03:24:37.948Z,99.99
2023-05-07T03:25:37.935Z,99.99
2023-05-07T03:26:37.932Z,99.99
2023-05-07T03:27:38.020Z,99.99
2023-05-07T03:28:37.903Z,99.99
2023-05-07T03:29:37.888Z,99.99
2023-05-07T03:30:37.867Z,99.99
2023-05-07T03:31:37.929Z,99.99
2023-05-07T03:32:37.937Z,99.99
2023-05-07T03:33:37.829Z,99.99
2023-05-07T03:34:37.813Z,99.99
2023-05-07T03:35:37.797Z,99.99
2023-05-07T03:36:37.792Z,99.99
2023-05-07T03:37:37.770Z,99.99
2023-05-07T03:38:37.757Z,99.99
2023-05-07T03:39:37.753Z,99.99
2023-05-07T03:40:37.732Z,99.99
2023-05-07T03:41:37.714Z,99.99
2023-05-07T03:42:37.714Z,99.99
2023-05-07T03:43:37.849Z,99.99
2023-05-07T03:44:37.676Z,99.99
2023-05-07T03:45:37.668Z,99.99
2023-05-07T03:46:37.683Z,99.99
2023-05-07T03:47:37.721Z,99.99
2023-05-07T03:48:37.627Z,99.99
2023-05-07T03:49:37.613Z,99.99
2023-05-07T03:50:37.626Z,99.99
2023-05-07T03:51:37.590Z,99.99
2023-05-07T03:52:37.571Z,99.99
2023-05-07T03:53:37.565Z,99.99
2023-05-07T03:54:37.549Z,99.99
2023-05-07T03:55:37.542Z,99.99
2023-05-07T03:56:37.521Z,99.99
2023-05-07T03:57:37.502Z,99.99
2023-05-07T03:58:37.508Z,99.99
2023-05-07T03:59:37.578Z,99.99
2023-05-07T04:00:37.463Z,99.99
2023-05-07T04:01:37.496Z,99.99
2023-05-07T04:02:37.641Z,99.99
2023-05-07T04:03:37.502Z,99.99
2023-05-07T04:04:37.416Z,99.99
2023-05-07T04:05:37.548Z,99.99
2023-05-07T04:06:37.389Z,99.99
2023-05-07T04:07:37.379Z,99.99
2023-05-07T04:08:37.365Z,99.99
2023-05-07T04:09:37.359Z,99.99
2023-05-07T04:10:37.334Z,99.99
2023-05-07T04:11:37.347Z,99.99
2023-05-07T04:12:37.358Z,99.99
2023-05-07T04:13:37.301Z,99.99
2023-05-07T04:14:37.277Z,99.99
2023-05-07T04:15:37.388Z,99.99
2023-05-07T04:16:37.327Z,99.99
2023-05-07T04:17:37.243Z,99.99
2023-05-07T04:18:37.230Z,99.99
2023-05-07T04:19:37.215Z,99.99
2023-05-07T04:20:37.217Z,99.99
2023-05-07T04:21:37.189Z,99.99
2023-05-07T04:22:37.170Z,99.99
2023-05-07T04:23:37.155Z,99.99
2023-05-07T04:24:37.160Z,99.99
2023-05-07T04:25:37.135Z,99.99
2023-05-07T04:26:37.121Z,99.99
2023-05-07T04:27:37.103Z,99.99
2023-05-07T04:28:37.092Z,99.99
2023-05-07T04:29:37.074Z,99.99
2023-05-07T04:30:37.069Z,99.99
2023-05-07T04:31:37.181Z,99.99
2023-05-07T04:32:37.070Z,99.99
2023-05-07T04:33:37.032Z,99.99
2023-05-07T04:34:37.013Z,99.99
2023-05-07T04:35:37.004Z,99.99
2023-05-07T04:36:36.983Z,99.99
2023-05-07T04:37:36.979Z,99.99
2023-05-07T04:38:36.964Z,99.99
2023-05-07T04:39:36.951Z,99.99
2023-05-07T04:40:36.930Z,99.99
2023-05-07T04:41:36.912Z,99.99
2023-05-07T04:42:36.912Z,99.99
2023-05-07T04:43:36.884Z,99.99
2023-05-07T04:44:36.876Z,99.99
2023-05-07T04:45:36.891Z,99.99
2023-05-07T04:46:36.936Z,99.99
2023-05-07T04:47:37.216Z,99.99
2023-05-07T04:48:36.856Z,99.99
2023-05-07T04:49:36.808Z,99.99
2023-05-07T04:50:36.795Z,99.99
2023-05-07T04:51:36.779Z,99.99
2023-05-07T04:52:36.768Z,99.99
2023-05-07T04:53:36.757Z,99.99
2023-05-07T04:54:36.756Z,99.99
2023-05-07T04:55:36.735Z,99.99
2023-05-07T04:56:36.715Z,99.99
2023-05-07T04:57:36.726Z,99.99
2023-05-07T04:58:36.687Z,99.99
2023-05-07T04:59:36.678Z,99.99
2023-05-07T05:00:36.670Z,99.99
2023-05-07T05:01:36.750Z,99.99
2023-05-07T05:02:36.656Z,99.99
2023-05-07T05:03:36.813Z,99.99
2023-05-07T05:04:36.623Z,99.99
2023-05-07T05:05:36.591Z,99.99
2023-05-07T05:06:36.583Z,99.99
2023-05-07T05:07:36.875Z,99.99
2023-05-07T05:08:36.559Z,99.99
2023-05-07T05:09:36.545Z,99.99
2023-05-07T05:10:36.543Z,99.99
2023-05-07T05:11:36.516Z,99.99
2023-05-07T05:12:36.522Z,99.99
2023-05-07T05:13:36.502Z,99.99
2023-05-07T05:14:36.478Z,99.99
2023-05-07T05:15:36.475Z,99.99
2023-05-07T05:16:36.540Z,99.99
2023-05-07T05:17:36.451Z,99.99
2023-05-07T05:18:36.441Z,99.99
2023-05-07T05:19:36.437Z,99.99
2023-05-07T05:20:36.407Z,99.26
2023-05-07T05:21:36.389Z,99.05
2023-05-07T05:22:36.373Z,98.70
2023-05-07T05:23:36.357Z,98.30
2023-05-07T05:24:36.341Z,97.99
2023-05-07T05:25:36.328Z,97.48
2023-05-07T05:26:36.316Z,96.83
2023-05-07T05:27:36.302Z,96.31
2023-05-07T05:28:36.300Z,97.23
2023-05-07T05:29:36.533Z,96.52
2023-05-07T05:30:36.270Z,96.07
2023-05-07T05:31:36.349Z,95.46
2023-05-07T05:32:36.249Z,95.66
2023-05-07T05:33:36.225Z,94.85
2023-05-07T05:34:36.210Z,94.90
2023-05-07T05:35:36.318Z,94.45
2023-05-07T05:36:36.182Z,93.95
2023-05-07T05:37:36.171Z,93.60
2023-05-07T05:38:36.164Z,93.19
2023-05-07T05:39:36.147Z,93.19
2023-05-07T05:40:36.135Z,92.94
2023-05-07T05:41:36.120Z,91.63
2023-05-07T05:42:36.111Z,90.61
2023-05-07T05:43:36.096Z,90.88
2023-05-07T05:44:36.081Z,90.57
2023-05-07T05:45:36.061Z,90.26
2023-05-07T05:46:37.304Z,90.26
2023-05-07T05:47:36.081Z,88.84
2023-05-07T05:48:36.036Z,89.25
2023-05-07T05:49:36.015Z,89.65
2023-05-07T05:50:35.996Z,89.04
2023-05-07T05:51:36.010Z,89.76
2023-05-07T05:52:36.127Z,89.31
2023-05-07T05:53:35.964Z,85.76
2023-05-07T05:54:35.960Z,85.96
2023-05-07T05:55:35.928Z,88.20
2023-05-07T05:56:35.916Z,88.29
2023-05-07T05:57:35.899Z,85.76
2023-05-07T05:58:35.895Z,86.53
2023-05-07T05:59:35.882Z,86.94
2023-05-07T06:00:35.866Z,85.38
2023-05-07T06:01:35.872Z,84.27
2023-05-07T06:02:35.956Z,83.90
2023-05-07T06:03:35.820Z,83.80
2023-05-07T06:04:35.838Z,83.80
2023-05-07T06:05:35.801Z,84.70
2023-05-07T06:06:35.789Z,84.77
2023-05-07T06:07:35.871Z,85.03
2023-05-07T06:08:35.758Z,84.97
2023-05-07T06:09:35.740Z,83.82
2023-05-07T06:10:35.730Z,83.72
2023-05-07T06:11:35.734Z,84.33
2023-05-07T06:12:35.749Z,83.82
2023-05-07T06:13:35.694Z,83.92
2023-05-07T06:14:35.690Z,83.58
2023-05-07T06:15:35.664Z,83.27
2023-05-07T06:16:35.705Z,84.69
2023-05-07T06:17:35.682Z,83.23
2023-05-07T06:18:35.633Z,81.51
2023-05-07T06:19:35.608Z,80.91
2023-05-07T06:20:35.601Z,81.57
2023-05-07T06:21:35.584Z,80.16
2023-05-07T06:22:35.575Z,79.66
2023-05-07T06:23:35.652Z,80.87
2023-05-07T06:24:35.549Z,78.24
2023-05-07T06:25:35.539Z,80.06
2023-05-07T06:26:35.524Z,79.39
2023-05-07T06:27:35.511Z,80.30
2023-05-07T06:28:35.494Z,79.69
2023-05-07T06:29:35.478Z,81.71
2023-05-07T06:30:35.477Z,81.48
2023-05-07T06:31:35.498Z,82.18
2023-05-07T06:32:35.443Z,82.49
2023-05-07T06:33:36.357Z,82.45
2023-05-07T06:34:35.417Z,82.04
2023-05-07T06:35:35.404Z,81.03
2023-05-07T06:36:35.391Z,81.07
2023-05-07T06:37:35.371Z,82.39
2023-05-07T06:38:35.365Z,81.78
2023-05-07T06:39:35.426Z,82.18
2023-05-07T06:40:35.334Z,83.40
2023-05-07T06:41:35.319Z,82.49
2023-05-07T06:42:35.302Z,82.08
2023-05-07T06:43:35.301Z,81.88
2023-05-07T06:44:35.297Z,82.65
2023-05-07T06:45:35.262Z,82.45
2023-05-07T06:46:35.523Z,82.55
2023-05-07T06:47:35.254Z,82.91
2023-05-07T06:48:35.231Z,82.01
2023-05-07T06:49:35.221Z,82.10
2023-05-07T06:50:35.209Z,80.45
2023-05-07T06:51:35.189Z,80.55
2023-05-07T06:52:35.476Z,79.54
2023-05-07T06:53:35.160Z,80.96
2023-05-07T06:54:35.151Z,81.12
2023-05-07T06:55:35.155Z,79.14
2023-05-07T06:56:35.124Z,78.43
2023-05-07T06:57:35.108Z,80.29
2023-05-07T06:58:35.103Z,80.90
2023-05-07T06:59:35.094Z,80.79
2023-05-07T07:00:35.069Z,80.39
2023-05-07T07:01:35.124Z,81.40
2023-05-07T07:02:35.113Z,81.16
2023-05-07T07:03:35.029Z,80.55
2023-05-07T07:04:35.048Z,79.64
2023-05-07T07:05:35.115Z,79.81
2023-05-07T07:06:34.992Z,79.41
2023-05-07T07:07:34.978Z,79.47
2023-05-07T07:08:34.966Z,79.03
2023-05-07T07:09:34.995Z,77.98
2023-05-07T07:10:34.937Z,77.84
2023-05-07T07:11:35.020Z,76.74
2023-05-07T07:12:35.002Z,74.62
2023-05-07T07:13:34.905Z,73.98
2023-05-07T07:14:34.882Z,76.10
2023-05-07T07:15:35.270Z,74.45
2023-05-07T07:16:34.892Z,73.08
2023-05-07T07:17:35.173Z,72.30
2023-05-07T07:18:34.831Z,73.41
2023-05-07T07:19:34.815Z,73.78
2023-05-07T07:20:34.822Z,73.24
2023-05-07T07:21:34.809Z,70.50
2023-05-07T07:22:34.781Z,70.96
2023-05-07T07:23:35.114Z,70.56
2023-05-07T07:24:34.750Z,70.46
2023-05-07T07:25:34.743Z,71.23
2023-05-07T07:26:34.931Z,69.39
2023-05-07T07:27:34.863Z,67.49
2023-05-07T07:28:34.700Z,68.08
2023-05-07T07:29:34.689Z,69.19
2023-05-07T07:30:34.678Z,68.85
2023-05-07T07:31:34.711Z,68.96
2023-05-07T07:32:34.709Z,68.85
2023-05-07T07:33:34.635Z,68.73
2023-05-07T07:34:34.624Z,66.72
2023-05-07T07:35:34.615Z,67.52
2023-05-07T07:36:45.093Z,66.05
2023-05-07T07:37:35.606Z,68.29
2023-05-07T07:38:34.572Z,69.09
2023-05-07T07:39:34.566Z,68.82
2023-05-07T07:40:34.551Z,70.12
2023-05-07T07:41:34.539Z,69.92
2023-05-07T07:42:34.527Z,68.95
2023-05-07T07:43:34.609Z,70.39
2023-05-07T07:44:34.494Z,70.63
2023-05-07T07:45:34.489Z,70.23
2023-05-07T07:46:34.492Z,71.23
2023-05-07T07:47:34.491Z,71.26
2023-05-07T07:48:34.436Z,70.83
2023-05-07T07:49:34.429Z,71.43
2023-05-07T07:50:44.525Z,70.73
2023-05-07T07:51:35.444Z,70.83
2023-05-07T07:52:34.390Z,70.23
2023-05-07T07:53:34.390Z,70.53
2023-05-07T07:54:34.360Z,71.94
2023-05-07T07:55:34.356Z,71.33
2023-05-07T07:56:34.334Z,73.84
2023-05-07T07:57:34.348Z,71.23
2023-05-07T07:58:34.309Z,72.60
2023-05-07T07:59:34.380Z,74.18
2023-05-07T08:00:34.285Z,72.37
2023-05-07T08:01:34.274Z,70.46
2023-05-07T08:02:34.365Z,70.06
2023-05-07T08:03:34.334Z,70.16
2023-05-07T08:04:34.349Z,69.26
2023-05-07T08:05:34.217Z,70.86
2023-05-07T08:06:34.224Z,71.06
2023-05-07T08:07:34.196Z,70.96
2023-05-07T08:08:34.189Z,70.46
2023-05-07T08:09:34.176Z,71.16
2023-05-07T08:10:35.102Z,70.86
2023-05-07T08:11:34.153Z,70.26
2023-05-07T08:12:34.128Z,70.59
2023-05-07T08:13:34.117Z,70.29
2023-05-07T08:14:34.102Z,71.80
2023-05-07T08:15:34.186Z,72.30
2023-05-07T08:16:34.112Z,69.79
2023-05-07T08:17:34.101Z,70.70
2023-05-07T08:18:34.055Z,70.96
2023-05-07T08:19:34.048Z,70.53
2023-05-07T08:20:34.028Z,70.53
2023-05-07T08:21:34.694Z,70.19
2023-05-07T08:22:34.045Z,68.92
2023-05-07T08:23:33.994Z,67.09
2023-05-07T08:24:33.980Z,66.13
2023-05-07T08:25:34.119Z,67.49
2023-05-07T08:26:33.946Z,69.36
2023-05-07T08:27:33.940Z,64.33
2023-05-07T08:28:33.925Z,63.70
2023-05-07T08:29:33.912Z,64.50
2023-05-07T08:30:33.909Z,65.67
2023-05-07T08:31:34.047Z,64.74
2023-05-07T08:32:33.896Z,63.64
2023-05-07T08:33:33.866Z,62.51
2023-05-07T08:34:33.849Z,61.79
2023-05-07T08:35:33.838Z,61.66
2023-05-07T08:36:33.820Z,61.25
2023-05-07T08:37:33.815Z,61.80
2023-05-07T08:38:33.795Z,59.51
2023-05-07T08:39:33.792Z,59.91
2023-05-07T08:40:33.775Z,61.80
2023-05-07T08:41:33.762Z,60.74
2023-05-07T08:42:33.740Z,57.43
2023-05-07T08:43:33.735Z,59.19
2023-05-07T08:44:33.717Z,58.20
2023-05-07T08:45:33.716Z,57.24
2023-05-07T08:46:33.767Z,60.22
2023-05-07T08:47:33.724Z,57.60
2023-05-07T08:48:33.668Z,56.84
2023-05-07T08:49:33.657Z,57.83
2023-05-07T08:50:33.656Z,56.94
2023-05-07T08:51:33.633Z,57.04
2023-05-07T08:52:33.617Z,57.60
2023-05-07T08:53:33.610Z,54.72
2023-05-07T08:54:33.594Z,58.67
2023-05-07T08:55:33.579Z,56.06
2023-05-07T08:56:33.565Z,55.96
2023-05-07T08:57:33.558Z,55.11
2023-05-07T08:58:33.541Z,54.52
2023-05-07T08:59:33.640Z,53.96
2023-05-07T09:00:33.524Z,53.83
2023-05-07T09:01:33.565Z,53.53
2023-05-07T09:02:33.507Z,55.81
2023-05-07T09:03:33.629Z,54.20
2023-05-07T09:04:33.465Z,51.20
2023-05-07T09:05:33.453Z,51.79
2023-05-07T09:06:33.449Z,52.59
2023-05-07T09:07:33.437Z,53.65
2023-05-07T09:08:33.418Z,50.78
2023-05-07T09:09:33.407Z,53.63
2023-05-07T09:10:33.395Z,51.03
2023-05-07T09:11:33.384Z,49.22
2023-05-07T09:12:33.385Z,48.75
2023-05-07T09:13:33.355Z,51.57
2023-05-07T09:14:33.350Z,51.57
2023-05-07T09:15:33.335Z,52.91
2023-05-07T09:16:33.513Z,50.41
2023-05-07T09:17:33.336Z,51.28
2023-05-07T09:18:33.304Z,49.99
2023-05-07T09:19:33.310Z,50.66
2023-05-07T09:20:33.272Z,51.72
2023-05-07T09:21:33.257Z,48.56
2023-05-07T09:22:33.253Z,50.93
2023-05-07T09:23:33.244Z,49.27
2023-05-07T09:24:33.239Z,50.59
2023-05-07T09:25:33.215Z,50.78
2023-05-07T09:26:33.208Z,50.78
2023-05-07T09:27:33.194Z,48.41
2023-05-07T09:28:34.240Z,49.49
2023-05-07T09:29:33.166Z,49.02
2023-05-07T09:30:33.158Z,50.81
2023-05-07T09:31:33.192Z,51.67
2023-05-07T09:32:33.165Z,50.90
2023-05-07T09:33:33.136Z,51.10
2023-05-07T09:34:33.112Z,51.03
2023-05-07T09:35:33.196Z,53.20
2023-05-07T09:36:33.083Z,48.71
2023-05-07T09:37:33.106Z,49.87
2023-05-07T09:38:33.060Z,49.96
2023-05-07T09:39:33.050Z,48.28
2023-05-07T09:40:33.038Z,49.79
2023-05-07T09:41:33.034Z,49.99
2023-05-07T09:42:33.008Z,49.37
2023-05-07T09:43:33.006Z,49.82
2023-05-07T09:44:32.994Z,49.43
2023-05-07T09:45:33.016Z,49.72
2023-05-07T09:46:32.960Z,47.92
2023-05-07T09:47:33.014Z,48.41
2023-05-07T09:48:33.141Z,48.69
2023-05-07T09:49:32.929Z,50.95
2023-05-07T09:50:32.939Z,47.80
2023-05-07T09:51:32.993Z,48.61
2023-05-07T09:52:32.891Z,47.33
2023-05-07T09:53:32.880Z,46.99
2023-05-07T09:54:32.872Z,48.44
2023-05-07T09:55:32.856Z,47.23
2023-05-07T09:56:32.898Z,47.33
2023-05-07T09:57:32.833Z,48.29
2023-05-07T09:58:32.823Z,45.85
2023-05-07T09:59:32.818Z,47.72
2023-05-07T10:00:32.804Z,47.60
2023-05-07T10:01:32.900Z,48.10
2023-05-07T10:02:32.807Z,48.10
2023-05-07T10:03:32.812Z,47.90
2023-05-07T10:04:32.755Z,47.97
2023-05-07T10:05:32.744Z,50.71
2023-05-07T10:06:32.727Z,49.21
2023-05-07T10:07:32.942Z,47.51
2023-05-07T10:08:32.708Z,45.96
2023-05-07T10:09:32.693Z,46.00
2023-05-07T10:10:32.691Z,47.60
2023-05-07T10:11:32.670Z,46.84
2023-05-07T10:12:32.663Z,45.85
2023-05-07T10:13:32.660Z,48.54
2023-05-07T10:14:32.628Z,48.27
2023-05-07T10:15:32.622Z,48.68
2023-05-07T10:16:32.623Z,49.33
2023-05-07T10:17:32.659Z,47.63
2023-05-07T10:18:32.627Z,48.00
2023-05-07T10:19:32.582Z,47.97
2023-05-07T10:20:32.564Z,47.66
2023-05-07T10:21:32.552Z,47.06
2023-05-07T10:22:32.549Z,44.80
2023-05-07T10:23:32.830Z,44.84
2023-05-07T10:24:32.515Z,46.25
2023-05-07T10:25:32.514Z,46.74
2023-05-07T10:26:32.523Z,48.12
2023-05-07T10:27:32.505Z,47.41
2023-05-07T10:28:32.478Z,46.91
2023-05-07T10:29:32.462Z,46.81
2023-05-07T10:30:33.130Z,47.88
2023-05-07T10:31:32.507Z,47.60
2023-05-07T10:32:32.448Z,46.81
2023-05-07T10:33:32.420Z,47.58
2023-05-07T10:34:32.404Z,46.50
2023-05-07T10:35:32.391Z,46.03
2023-05-07T10:36:32.380Z,45.56
2023-05-07T10:37:32.365Z,46.66
2023-05-07T10:38:32.361Z,45.87
2023-05-07T10:39:32.372Z,46.94
2023-05-07T10:40:32.342Z,48.00
2023-05-07T10:41:32.329Z,45.59
2023-05-07T10:42:32.313Z,45.96
2023-05-07T10:43:32.305Z,44.80
2023-05-07T10:44:32.286Z,43.59
2023-05-07T10:45:32.287Z,45.20
2023-05-07T10:46:32.307Z,45.38
2023-05-07T10:47:32.301Z,45.57
2023-05-07T10:48:32.273Z,46.91
2023-05-07T10:49:32.593Z,48.09
2023-05-07T10:50:32.244Z,48.46
2023-05-07T10:51:32.212Z,46.66
2023-05-07T10:52:32.195Z,46.78
2023-05-07T10:53:32.188Z,47.28
2023-05-07T10:54:32.172Z,46.26
2023-05-07T10:55:32.257Z,47.21
2023-05-07T10:56:32.147Z,46.72
2023-05-07T10:57:32.168Z,44.84
2023-05-07T10:58:33.025Z,45.65
2023-05-07T10:59:32.115Z,46.17
2023-05-07T11:01:32.103Z,47.53
2023-05-07T11:02:32.115Z,45.95
2023-05-07T11:03:32.073Z,45.28
2023-05-07T11:04:32.062Z,45.62
2023-05-07T11:05:32.728Z,46.91
2023-05-07T11:06:32.034Z,46.70
2023-05-07T11:07:32.116Z,48.09
2023-05-07T11:08:32.011Z,47.97
2023-05-07T11:09:31.997Z,47.47
2023-05-07T11:10:31.981Z,45.89
2023-05-07T11:11:33.015Z,46.09
2023-05-07T11:12:31.955Z,47.18
2023-05-07T11:13:31.945Z,47.85
2023-05-07T11:14:31.938Z,45.26
2023-05-07T11:15:31.927Z,46.15
2023-05-07T11:16:31.930Z,47.53
2023-05-07T11:17:32.752Z,45.85
2023-05-07T11:18:31.886Z,45.06
2023-05-07T11:19:31.896Z,45.57
2023-05-07T11:20:31.868Z,45.52
2023-05-07T11:21:31.856Z,46.48
2023-05-07T11:22:31.841Z,47.18
2023-05-07T11:23:31.837Z,46.07
2023-05-07T11:24:31.817Z,44.37
2023-05-07T11:25:31.801Z,45.04
2023-05-07T11:26:31.803Z,43.86
2023-05-07T11:27:31.886Z,43.82
2023-05-07T11:28:31.777Z,44.71
2023-05-07T11:29:31.765Z,46.45
2023-05-07T11:30:31.748Z,46.18
2023-05-07T11:31:31.900Z,48.36
2023-05-07T11:32:31.785Z,48.95
2023-05-07T11:33:31.712Z,46.60
2023-05-07T11:34:31.693Z,49.49
2023-05-07T11:35:31.691Z,48.23
2023-05-07T11:36:31.674Z,48.82
2023-05-07T11:37:31.674Z,48.55
2023-05-07T11:38:31.646Z,49.34
2023-05-07T11:39:31.640Z,48.87
2023-05-07T11:40:31.630Z,49.99
2023-05-07T11:41:31.613Z,50.38
2023-05-07T11:42:31.614Z,50.98
2023-05-07T11:43:31.747Z,50.28
2023-05-07T11:44:31.585Z,51.07
2023-05-07T11:45:31.574Z,49.32
2023-05-07T11:46:31.593Z,50.70
2023-05-07T11:47:31.558Z,50.40
2023-05-07T11:48:31.526Z,52.00
2023-05-07T11:49:31.521Z,50.53
2023-05-07T11:50:31.521Z,51.95
2023-05-07T11:51:31.841Z,52.37
2023-05-07T11:52:31.481Z,52.86
2023-05-07T11:53:31.470Z,53.86
2023-05-07T11:54:31.457Z,54.25
2023-05-07T11:55:31.451Z,53.49
2023-05-07T11:56:31.431Z,53.58
2023-05-07T11:57:31.425Z,55.18
2023-05-07T11:58:31.398Z,56.37
2023-05-07T11:59:31.408Z,56.17
2023-05-07T12:00:31.375Z,55.90
2023-05-07T12:01:31.361Z,55.60
2023-05-07T12:02:31.442Z,55.60
2023-05-07T12:03:32.308Z,56.00
2023-05-07T12:04:31.367Z,54.90
2023-05-07T12:05:31.309Z,54.50
2023-05-07T12:06:31.304Z,55.63
2023-05-07T12:07:31.288Z,56.23
2023-05-07T12:08:31.276Z,55.82
2023-05-07T12:09:31.264Z,57.05
2023-05-07T12:10:31.250Z,56.15
2023-05-07T12:11:31.240Z,56.08
2023-05-07T12:12:31.229Z,57.87
2023-05-07T12:13:31.218Z,58.80
2023-05-07T12:14:31.206Z,57.10
2023-05-07T12:15:31.212Z,57.10
2023-05-07T12:16:31.201Z,56.30
2023-05-07T12:17:31.196Z,56.83
2023-05-07T12:18:31.155Z,57.43
2023-05-07T12:19:31.133Z,58.65
2023-05-07T12:20:31.129Z,58.83
2023-05-07T12:21:31.111Z,58.45
2023-05-07T12:22:31.107Z,59.22
2023-05-07T12:23:31.080Z,59.92
2023-05-07T12:24:31.096Z,60.25
2023-05-07T12:25:31.052Z,60.45
2023-05-07T12:26:31.047Z,60.75
2023-05-07T12:27:31.023Z,61.85
2023-05-07T12:28:31.014Z,61.85
2023-05-07T12:29:30.998Z,61.94
2023-05-07T12:30:30.990Z,61.65
2023-05-07T12:31:31.067Z,61.25
2023-05-07T12:32:30.979Z,61.35
2023-05-07T12:33:30.954Z,62.27
2023-05-07T12:34:30.955Z,61.98
2023-05-07T12:35:30.932Z,62.57
2023-05-07T12:36:30.922Z,61.38
2023-05-07T12:37:32.449Z,62.27
2023-05-07T12:38:30.891Z,61.90
2023-05-07T12:39:30.890Z,61.51
2023-05-07T12:40:30.867Z,61.73
2023-05-07T12:41:30.855Z,62.06
2023-05-07T12:42:30.842Z,63.26
2023-05-07T12:43:30.821Z,63.19
2023-05-07T12:44:30.916Z,64.09
2023-05-07T12:45:30.798Z,63.53
2023-05-07T12:46:30.826Z,63.92
2023-05-07T12:47:30.870Z,64.15
2023-05-07T12:48:30.767Z,64.25
2023-05-07T12:49:30.754Z,65.16
2023-05-07T12:50:30.741Z,66.36
2023-05-07T12:51:30.723Z,67.09
2023-05-07T12:52:30.812Z,67.39
2023-05-07T12:53:30.698Z,67.12